createdAt,value
2017-12-20T00:00:51.871Z,0.00
2017-12-20T00:01:51.803Z,0.00
2017-12-20T00:02:51.771Z,0.00
2017-12-20T00:03:51.713Z,0.00
2017-12-20T00:04:51.653Z,0.00
2017-12-20T00:05:51.636Z,0.00
2017-12-20T00:06:51.571Z,0.00
2017-12-20T00:07:51.556Z,0.00
2017-12-20T00:08:51.485Z,0.00
2017-12-20T00:09:51.452Z,0.00
2017-12-20T00:10:51.388Z,0.00
2017-12-20T00:11:51.358Z,0.00
2017-12-20T00:12:51.299Z,0.00
2017-12-20T00:13:51.275Z,0.00
2017-12-20T00:14:51.210Z,0.00
2017-12-20T00:15:51.160Z,0.00
2017-12-20T00:16:51.109Z,0.00
2017-12-20T00:17:51.069Z,0.00
2017-12-20T00:18:51.077Z,0.00
2017-12-20T00:19:50.985Z,0.00
2017-12-20T00:20:50.936Z,0.00
2017-12-20T00:21:50.883Z,0.00
2017-12-20T00:22:50.845Z,0.00
2017-12-20T00:23:50.797Z,0.00
2017-12-20T00:24:50.746Z,0.00
2017-12-20T00:25:50.717Z,0.00
2017-12-20T00:26:50.666Z,0.00
2017-12-20T00:27:50.614Z,0.00
2017-12-20T00:28:50.572Z,0.00
2017-12-20T00:29:50.534Z,0.00
2017-12-20T00:30:50.485Z,0.00
2017-12-20T00:31:50.475Z,0.00
2017-12-20T00:32:50.400Z,0.00
2017-12-20T00:33:50.348Z,0.00
2017-12-20T00:34:50.307Z,0.00
2017-12-20T00:35:50.258Z,0.00
2017-12-20T00:36:50.206Z,0.00
2017-12-20T00:37:50.155Z,0.00
2017-12-20T00:38:50.108Z,0.00
2017-12-20T00:39:50.070Z,0.00
2017-12-20T00:40:50.021Z,0.00
2017-12-20T00:41:50.036Z,0.00
2017-12-20T00:42:49.921Z,0.00
2017-12-20T00:43:49.884Z,0.00
2017-12-20T00:44:49.833Z,0.00
2017-12-20T00:45:49.791Z,0.00
2017-12-20T00:46:49.749Z,0.00
2017-12-20T00:47:49.693Z,0.00
2017-12-20T00:48:49.650Z,0.00
2017-12-20T00:49:49.600Z,0.00
2017-12-20T00:50:49.558Z,0.00
2017-12-20T00:51:49.525Z,0.00
2017-12-20T00:52:49.487Z,0.00
2017-12-20T00:53:49.427Z,0.00
2017-12-20T00:54:49.385Z,0.00
2017-12-20T00:55:49.333Z,0.00
2017-12-20T00:56:49.344Z,0.00
2017-12-20T00:57:49.245Z,0.00
2017-12-20T00:58:49.199Z,0.00
2017-12-20T00:59:49.150Z,0.00
2017-12-20T01:00:49.113Z,0.00
2017-12-20T01:01:49.070Z,0.00
2017-12-20T01:02:49.026Z,0.00
2017-12-20T01:03:48.983Z,0.00
2017-12-20T01:04:48.953Z,0.00
2017-12-20T01:05:48.884Z,0.00
2017-12-20T01:06:48.840Z,0.00
2017-12-20T01:07:48.820Z,0.00
2017-12-20T01:08:48.761Z,0.00
2017-12-20T01:09:48.698Z,0.00
2017-12-20T01:10:48.682Z,0.00
2017-12-20T01:11:48.611Z,0.00
2017-12-20T01:12:48.564Z,0.00
2017-12-20T01:13:48.512Z,0.00
2017-12-20T01:14:48.475Z,0.00
2017-12-20T01:15:48.420Z,0.00
2017-12-20T01:16:48.385Z,0.00
2017-12-20T01:17:48.341Z,0.00
2017-12-20T01:18:48.327Z,0.00
2017-12-20T01:19:48.241Z,0.00
2017-12-20T01:20:48.199Z,0.00
2017-12-20T01:21:48.159Z,0.00
2017-12-20T01:22:48.104Z,0.00
2017-12-20T01:23:48.058Z,0.00
2017-12-20T01:24:48.010Z,0.00
2017-12-20T01:25:47.963Z,0.00
2017-12-20T01:26:47.923Z,0.00
2017-12-20T01:27:47.881Z,0.00
2017-12-20T01:28:47.839Z,0.00
2017-12-20T01:29:47.785Z,0.00
2017-12-20T01:30:47.752Z,0.00
2017-12-20T01:31:47.704Z,0.00
2017-12-20T01:32:47.652Z,0.00
2017-12-20T01:33:47.599Z,0.00
2017-12-20T01:34:47.556Z,0.00
2017-12-20T01:35:47.520Z,0.00
2017-12-20T01:36:47.468Z,0.00
2017-12-20T01:37:47.424Z,0.00
2017-12-20T01:38:47.373Z,0.00
2017-12-20T01:39:47.335Z,0.00
2017-12-20T01:40:47.314Z,0.00
2017-12-20T01:41:47.240Z,0.00
2017-12-20T01:42:47.194Z,0.00
2017-12-20T01:43:47.156Z,0.00
2017-12-20T01:44:47.102Z,0.00
2017-12-20T01:45:47.057Z,0.00
2017-12-20T01:46:47.010Z,0.00
2017-12-20T01:47:46.968Z,0.00
2017-12-20T01:48:46.918Z,0.00
2017-12-20T01:49:46.870Z,0.00
2017-12-20T01:50:46.845Z,0.00
2017-12-20T01:51:46.784Z,0.00
2017-12-20T01:52:46.738Z,0.00
2017-12-20T01:53:46.690Z,0.00
2017-12-20T01:54:46.641Z,0.00
2017-12-20T01:55:46.604Z,0.00
2017-12-20T01:56:46.561Z,0.00
2017-12-20T01:57:46.520Z,0.00
2017-12-20T01:58:46.464Z,0.00
2017-12-20T01:59:46.422Z,0.00
2017-12-20T02:00:46.376Z,0.00
2017-12-20T02:01:46.334Z,0.00
2017-12-20T02:02:46.282Z,0.00
2017-12-20T02:03:46.244Z,0.00
2017-12-20T02:04:46.195Z,0.00
2017-12-20T02:05:46.164Z,0.00
2017-12-20T02:06:46.108Z,0.00
2017-12-20T02:07:46.064Z,0.00
2017-12-20T02:08:46.018Z,0.00
2017-12-20T02:09:45.979Z,0.00
2017-12-20T02:10:45.918Z,0.00
2017-12-20T02:11:45.888Z,0.00
2017-12-20T02:12:45.830Z,0.00
2017-12-20T02:13:45.799Z,0.00
2017-12-20T02:14:45.742Z,0.00
2017-12-20T02:15:45.707Z,0.00
2017-12-20T02:16:45.664Z,0.00
2017-12-20T02:17:45.623Z,0.00
2017-12-20T02:18:45.573Z,0.00
2017-12-20T02:19:45.526Z,0.00
2017-12-20T02:20:45.469Z,0.00
2017-12-20T02:21:45.418Z,0.00
2017-12-20T02:22:45.378Z,0.00
2017-12-20T02:23:45.356Z,0.00
2017-12-20T02:24:45.294Z,0.00
2017-12-20T02:25:45.282Z,0.00
2017-12-20T02:26:45.203Z,0.00
2017-12-20T02:27:45.179Z,0.00
2017-12-20T02:28:45.117Z,0.00
2017-12-20T02:29:45.066Z,0.00
2017-12-20T02:30:45.016Z,0.00
2017-12-20T02:31:44.965Z,0.00
2017-12-20T02:32:44.929Z,0.00
2017-12-20T02:33:44.878Z,0.00
2017-12-20T02:34:44.836Z,0.00
2017-12-20T02:35:44.788Z,0.00
2017-12-20T02:36:44.751Z,0.00
2017-12-20T02:37:44.694Z,0.00
2017-12-20T02:38:44.664Z,0.00
2017-12-20T02:39:44.611Z,0.00
2017-12-20T02:40:44.572Z,0.00
2017-12-20T02:41:44.513Z,0.00
2017-12-20T02:42:44.473Z,0.00
2017-12-20T02:43:44.428Z,0.00
2017-12-20T02:44:44.389Z,0.00
2017-12-20T02:45:44.330Z,0.00
2017-12-20T02:46:44.304Z,0.00
2017-12-20T02:47:44.239Z,0.00
2017-12-20T02:48:44.212Z,0.00
2017-12-20T02:49:44.161Z,0.00
2017-12-20T02:50:44.126Z,0.00
2017-12-20T02:51:44.069Z,0.00
2017-12-20T02:52:44.036Z,0.00
2017-12-20T02:53:43.964Z,0.00
2017-12-20T02:54:43.932Z,0.00
2017-12-20T02:55:43.962Z,0.00
2017-12-20T02:56:43.847Z,0.00
2017-12-20T02:57:43.790Z,0.00
2017-12-20T02:58:43.751Z,0.00
2017-12-20T02:59:43.693Z,0.00
2017-12-20T03:00:43.667Z,0.00
2017-12-20T03:01:43.619Z,0.00
2017-12-20T03:02:43.578Z,0.00
2017-12-20T03:03:43.517Z,0.00
2017-12-20T03:04:43.488Z,0.00
2017-12-20T03:05:43.432Z,0.00
2017-12-20T03:06:43.390Z,0.00
2017-12-20T03:07:43.346Z,0.00
2017-12-20T03:08:43.297Z,0.00
2017-12-20T03:09:43.308Z,0.00
2017-12-20T03:10:43.209Z,0.00
2017-12-20T03:11:43.156Z,0.00
2017-12-20T03:12:43.120Z,0.00
2017-12-20T03:13:43.056Z,0.00
2017-12-20T03:14:43.018Z,0.00
2017-12-20T03:15:43.003Z,0.00
2017-12-20T03:16:42.960Z,0.00
2017-12-20T03:17:42.897Z,0.00
2017-12-20T03:18:42.826Z,0.00
2017-12-20T03:19:42.801Z,0.00
2017-12-20T03:20:42.752Z,0.00
2017-12-20T03:21:42.699Z,0.00
2017-12-20T03:22:42.656Z,0.00
2017-12-20T03:23:42.657Z,0.00
2017-12-20T03:24:42.558Z,0.00
2017-12-20T03:25:42.530Z,0.00
2017-12-20T03:26:42.490Z,0.00
2017-12-20T03:27:42.440Z,0.00
2017-12-20T03:28:42.378Z,0.00
2017-12-20T03:29:42.347Z,0.00
2017-12-20T03:30:42.307Z,0.00
2017-12-20T03:31:42.260Z,0.00
2017-12-20T03:32:42.216Z,0.00
2017-12-20T03:33:42.151Z,0.00
2017-12-20T03:34:42.114Z,0.00
2017-12-20T03:35:42.098Z,0.00
2017-12-20T03:36:42.017Z,0.00
2017-12-20T03:37:41.981Z,0.00
2017-12-20T03:38:41.945Z,0.00
2017-12-20T03:39:41.875Z,0.00
2017-12-20T03:40:41.842Z,0.00
2017-12-20T03:41:41.786Z,0.00
2017-12-20T03:42:41.745Z,0.00
2017-12-20T03:43:41.701Z,0.00
2017-12-20T03:44:41.639Z,0.00
2017-12-20T03:45:41.607Z,0.00
2017-12-20T03:46:41.568Z,0.00
2017-12-20T03:47:41.515Z,0.00
2017-12-20T03:48:41.467Z,0.00
2017-12-20T03:49:41.419Z,0.00
2017-12-20T03:50:41.386Z,0.00
2017-12-20T03:51:41.342Z,0.00
2017-12-20T03:52:41.297Z,0.00
2017-12-20T03:53:41.279Z,0.00
2017-12-20T03:54:41.199Z,0.00
2017-12-20T03:55:41.153Z,0.00
2017-12-20T03:56:41.111Z,0.00
2017-12-20T03:57:41.057Z,0.00
2017-12-20T03:58:41.009Z,0.00
2017-12-20T03:59:40.979Z,0.00
2017-12-20T04:00:40.929Z,0.00
2017-12-20T04:01:40.877Z,0.00
2017-12-20T04:02:40.848Z,0.00
2017-12-20T04:03:40.785Z,0.00
2017-12-20T04:04:40.745Z,0.00
2017-12-20T04:05:40.703Z,0.00
2017-12-20T04:06:40.655Z,0.00
2017-12-20T04:07:40.639Z,0.00
2017-12-20T04:08:40.556Z,0.00
2017-12-20T04:09:40.518Z,0.00
2017-12-20T04:10:40.462Z,0.00
2017-12-20T04:11:40.407Z,0.00
2017-12-20T04:12:40.378Z,0.00
2017-12-20T04:13:40.342Z,0.00
2017-12-20T04:14:40.282Z,0.00
2017-12-20T04:15:40.241Z,0.00
2017-12-20T04:16:40.202Z,0.00
2017-12-20T04:17:40.139Z,0.00
2017-12-20T04:18:40.113Z,0.00
2017-12-20T04:19:40.055Z,0.00
2017-12-20T04:20:40.018Z,0.00
2017-12-20T04:21:39.963Z,0.00
2017-12-20T04:22:39.928Z,0.00
2017-12-20T04:23:39.878Z,0.00
2017-12-20T04:24:39.833Z,0.00
2017-12-20T04:25:39.787Z,0.00
2017-12-20T04:26:39.751Z,0.00
2017-12-20T04:27:39.689Z,0.00
2017-12-20T04:28:39.645Z,0.00
2017-12-20T04:29:39.599Z,0.00
2017-12-20T04:30:39.558Z,0.00
2017-12-20T04:31:39.525Z,0.00
2017-12-20T04:32:39.465Z,0.00
2017-12-20T04:33:39.422Z,0.00
2017-12-20T04:34:39.369Z,0.00
2017-12-20T04:35:39.328Z,0.00
2017-12-20T04:36:39.285Z,0.00
2017-12-20T04:37:39.239Z,0.00
2017-12-20T04:38:39.210Z,0.00
2017-12-20T04:39:39.157Z,0.00
2017-12-20T04:40:39.097Z,0.00
2017-12-20T04:41:39.064Z,0.00
2017-12-20T04:42:39.021Z,0.00
2017-12-20T04:43:38.990Z,0.00
2017-12-20T04:44:38.936Z,0.00
2017-12-20T04:45:38.889Z,0.00
2017-12-20T04:46:38.843Z,0.00
2017-12-20T04:47:38.782Z,0.00
2017-12-20T04:48:38.752Z,0.00
2017-12-20T04:49:38.685Z,0.00
2017-12-20T04:50:38.659Z,0.00
2017-12-20T04:51:38.599Z,0.00
2017-12-20T04:52:38.563Z,0.00
2017-12-20T04:53:38.514Z,0.00
2017-12-20T04:54:38.473Z,0.00
2017-12-20T04:55:38.426Z,0.00
2017-12-20T04:56:38.376Z,0.00
2017-12-20T04:57:38.332Z,0.00
2017-12-20T04:58:38.310Z,0.00
2017-12-20T04:59:38.238Z,0.00
2017-12-20T05:00:38.202Z,0.00
2017-12-20T05:01:38.159Z,0.00
2017-12-20T05:02:38.117Z,0.00
2017-12-20T05:03:38.063Z,0.00
2017-12-20T05:04:38.037Z,0.00
2017-12-20T05:05:37.976Z,0.00
2017-12-20T05:06:37.941Z,0.00
2017-12-20T05:07:37.885Z,0.00
2017-12-20T05:08:37.842Z,0.00
2017-12-20T05:09:37.792Z,0.00
2017-12-20T05:10:37.744Z,0.00
2017-12-20T05:11:37.691Z,0.00
2017-12-20T05:12:37.670Z,0.00
2017-12-20T05:13:37.603Z,0.00
2017-12-20T05:14:37.563Z,0.00
2017-12-20T05:15:37.524Z,0.00
2017-12-20T05:16:37.472Z,0.00
2017-12-20T05:17:37.429Z,0.00
2017-12-20T05:18:37.389Z,0.00
2017-12-20T05:19:37.344Z,0.00
2017-12-20T05:20:37.280Z,0.00
2017-12-20T05:21:37.239Z,0.00
2017-12-20T05:22:37.198Z,0.00
2017-12-20T05:23:37.149Z,0.00
2017-12-20T05:24:37.106Z,0.00
2017-12-20T05:25:37.064Z,0.00
2017-12-20T05:26:37.030Z,0.00
2017-12-20T05:27:36.969Z,0.00
2017-12-20T05:28:36.920Z,0.00
2017-12-20T05:29:36.867Z,0.00
2017-12-20T05:30:36.848Z,0.00
2017-12-20T05:31:36.802Z,0.00
2017-12-20T05:32:36.747Z,0.00
2017-12-20T05:33:36.721Z,0.00
2017-12-20T05:34:36.660Z,0.00
2017-12-20T05:35:36.627Z,0.00
2017-12-20T05:36:36.563Z,0.00
2017-12-20T05:37:36.538Z,0.00
2017-12-20T05:38:36.482Z,0.00
2017-12-20T05:39:36.428Z,0.00
2017-12-20T05:40:36.383Z,0.00
2017-12-20T05:41:36.361Z,0.00
2017-12-20T05:42:36.279Z,0.00
2017-12-20T05:43:36.242Z,0.00
2017-12-20T05:44:36.197Z,0.00
2017-12-20T05:45:36.167Z,0.00
2017-12-20T05:46:36.116Z,0.00
2017-12-20T05:47:36.065Z,0.00
2017-12-20T05:48:36.011Z,0.00
2017-12-20T05:49:35.994Z,0.00
2017-12-20T05:50:35.919Z,0.00
2017-12-20T05:51:35.884Z,0.00
2017-12-20T05:52:35.835Z,0.00
2017-12-20T05:53:35.830Z,0.00
2017-12-20T05:54:35.748Z,0.00
2017-12-20T05:55:35.709Z,0.00
2017-12-20T05:56:35.646Z,0.00
2017-12-20T05:57:35.602Z,0.00
2017-12-20T05:58:35.553Z,0.00
2017-12-20T05:59:35.518Z,0.00
2017-12-20T06:00:35.468Z,0.00
2017-12-20T06:01:35.413Z,0.00
2017-12-20T06:02:35.442Z,0.00
2017-12-20T06:03:35.346Z,0.00
2017-12-20T06:04:35.287Z,0.00
2017-12-20T06:05:35.234Z,0.00
2017-12-20T06:06:35.194Z,0.00
2017-12-20T06:07:35.204Z,0.00
2017-12-20T06:08:35.107Z,0.00
2017-12-20T06:09:35.057Z,0.00
2017-12-20T06:10:35.019Z,0.00
2017-12-20T06:11:34.964Z,0.00
2017-12-20T06:12:34.920Z,0.00
2017-12-20T06:13:34.880Z,0.00
2017-12-20T06:14:34.840Z,0.00
2017-12-20T06:15:34.782Z,0.00
2017-12-20T06:16:34.738Z,0.00
2017-12-20T06:17:34.686Z,0.00
2017-12-20T06:18:34.653Z,0.00
2017-12-20T06:19:34.591Z,0.00
2017-12-20T06:20:34.562Z,0.00
2017-12-20T06:21:34.504Z,0.00
2017-12-20T06:22:34.474Z,0.00
2017-12-20T06:23:34.456Z,0.00
2017-12-20T06:24:34.402Z,0.00
2017-12-20T06:25:34.343Z,0.00
2017-12-20T06:26:34.296Z,0.00
2017-12-20T06:27:34.236Z,0.00
2017-12-20T06:28:34.195Z,0.00
2017-12-20T06:29:34.138Z,0.00
2017-12-20T06:30:34.109Z,0.00
2017-12-20T06:31:34.060Z,0.00
2017-12-20T06:32:34.012Z,0.00
2017-12-20T06:33:33.964Z,0.00
2017-12-20T06:34:33.942Z,0.00
2017-12-20T06:35:33.893Z,0.00
2017-12-20T06:36:33.840Z,0.00
2017-12-20T06:37:33.798Z,0.00
2017-12-20T06:38:33.746Z,0.00
2017-12-20T06:39:33.700Z,0.00
2017-12-20T06:40:33.654Z,0.00
2017-12-20T06:41:33.600Z,0.00
2017-12-20T06:42:33.569Z,0.00
2017-12-20T06:43:33.521Z,0.00
2017-12-20T06:44:33.472Z,0.00
2017-12-20T06:45:33.419Z,0.00
2017-12-20T06:46:33.370Z,0.00
2017-12-20T06:47:33.326Z,0.00
2017-12-20T06:48:33.288Z,0.00
2017-12-20T06:49:33.239Z,0.00
2017-12-20T06:50:33.191Z,0.00
2017-12-20T06:51:33.151Z,0.00
2017-12-20T06:52:33.104Z,0.00
2017-12-20T06:53:33.067Z,0.00
2017-12-20T06:54:33.012Z,0.00
2017-12-20T06:55:32.982Z,0.00
2017-12-20T06:56:32.910Z,0.00
2017-12-20T06:57:32.873Z,0.00
2017-12-20T06:58:32.833Z,5.63
2017-12-20T06:59:32.777Z,5.63
2017-12-20T07:00:32.739Z,5.63
2017-12-20T07:01:32.703Z,5.63
2017-12-20T07:02:32.655Z,5.63
2017-12-20T07:03:32.601Z,5.63
2017-12-20T07:04:32.549Z,11.25
2017-12-20T07:05:32.515Z,11.25
2017-12-20T07:06:32.474Z,11.25
2017-12-20T07:07:32.429Z,11.25
2017-12-20T07:08:32.380Z,16.88
2017-12-20T07:09:32.327Z,16.88
2017-12-20T07:10:32.277Z,16.88
2017-12-20T07:11:32.237Z,16.88
2017-12-20T07:12:32.189Z,22.50
2017-12-20T07:13:32.143Z,22.50
2017-12-20T07:14:32.093Z,28.13
2017-12-20T07:15:32.056Z,28.13
2017-12-20T07:16:32.014Z,33.75
2017-12-20T07:17:32.022Z,33.75
2017-12-20T07:18:31.913Z,33.75
2017-12-20T07:19:31.864Z,33.75
2017-12-20T07:20:31.817Z,39.38
2017-12-20T07:21:31.786Z,45.00
2017-12-20T07:22:31.736Z,45.00
2017-12-20T07:23:31.707Z,50.63
2017-12-20T07:24:31.651Z,56.25
2017-12-20T07:25:31.591Z,61.88
2017-12-20T07:26:31.553Z,67.50
2017-12-20T07:27:31.506Z,67.50
2017-12-20T07:28:31.461Z,73.13
2017-12-20T07:29:31.421Z,78.75
2017-12-20T07:30:31.374Z,84.38
2017-12-20T07:31:31.335Z,90.00
2017-12-20T07:32:31.286Z,95.63
2017-12-20T07:33:31.238Z,95.63
2017-12-20T07:34:31.197Z,95.63
2017-12-20T07:35:31.219Z,101.25
2017-12-20T07:36:31.127Z,106.88
2017-12-20T07:37:31.058Z,112.50
2017-12-20T07:38:31.024Z,118.13
2017-12-20T07:39:30.968Z,129.38
2017-12-20T07:40:30.918Z,129.38
2017-12-20T07:41:30.900Z,135.00
2017-12-20T07:42:30.816Z,135.00
2017-12-20T07:43:30.775Z,140.63
2017-12-20T07:44:30.725Z,146.25
2017-12-20T07:45:30.676Z,146.25
2017-12-20T07:46:30.628Z,151.88
2017-12-20T07:47:30.589Z,157.50
2017-12-20T07:48:30.546Z,163.13
2017-12-20T07:49:30.516Z,168.75
2017-12-20T07:50:30.463Z,174.38
2017-12-20T07:51:30.420Z,174.38
2017-12-20T07:52:30.362Z,180.00
2017-12-20T07:53:30.326Z,185.63
2017-12-20T07:54:30.275Z,191.25
2017-12-20T07:55:30.236Z,196.88
2017-12-20T07:56:30.195Z,196.88
2017-12-20T07:57:30.141Z,196.88
2017-12-20T07:58:30.106Z,202.50
2017-12-20T07:59:30.064Z,202.50
2017-12-20T08:00:30.025Z,202.50
2017-12-20T08:01:29.959Z,202.50
2017-12-20T08:02:29.958Z,213.75
2017-12-20T08:03:29.868Z,219.38
2017-12-20T08:04:29.827Z,219.38
2017-12-20T08:05:29.771Z,219.38
2017-12-20T08:06:29.743Z,219.38
2017-12-20T08:07:29.689Z,219.38
2017-12-20T08:08:29.644Z,225.00
2017-12-20T08:09:29.676Z,230.63
2017-12-20T08:10:29.557Z,236.25
2017-12-20T08:11:29.517Z,241.88
2017-12-20T08:12:29.489Z,253.13
2017-12-20T08:13:29.444Z,253.13
2017-12-20T08:14:29.388Z,253.13
2017-12-20T08:15:29.326Z,253.13
2017-12-20T08:16:29.289Z,258.75
2017-12-20T08:17:29.237Z,264.38
2017-12-20T08:18:29.202Z,270.00
2017-12-20T08:19:29.144Z,275.63
2017-12-20T08:20:29.119Z,270.00
2017-12-20T08:21:29.082Z,275.63
2017-12-20T08:22:29.040Z,275.63
2017-12-20T08:23:28.981Z,281.25
2017-12-20T08:24:28.926Z,281.25
2017-12-20T08:25:28.883Z,281.25
2017-12-20T08:26:28.851Z,281.25
2017-12-20T08:27:28.849Z,281.25
2017-12-20T08:28:28.753Z,281.25
2017-12-20T08:29:28.702Z,281.25
2017-12-20T08:30:28.676Z,286.88
2017-12-20T08:31:28.606Z,292.50
2017-12-20T08:32:28.577Z,292.50
2017-12-20T08:33:28.557Z,303.75
2017-12-20T08:34:28.469Z,309.38
2017-12-20T08:35:28.451Z,320.63
2017-12-20T08:36:28.405Z,326.25
2017-12-20T08:37:28.345Z,326.25
2017-12-20T08:38:28.315Z,326.25
2017-12-20T08:39:28.250Z,320.63
2017-12-20T08:40:28.206Z,320.63
2017-12-20T08:41:28.170Z,326.25
2017-12-20T08:42:28.118Z,331.88
2017-12-20T08:43:28.081Z,343.13
2017-12-20T08:44:28.021Z,348.75
2017-12-20T08:45:27.991Z,360.00
2017-12-20T08:46:27.933Z,360.00
2017-12-20T08:47:29.015Z,348.75
2017-12-20T08:48:27.876Z,337.50
2017-12-20T08:49:27.802Z,337.50
2017-12-20T08:50:27.762Z,337.50
2017-12-20T08:51:27.726Z,343.13
2017-12-20T08:52:27.660Z,348.75
2017-12-20T08:53:27.655Z,348.75
2017-12-20T08:54:27.582Z,354.38
2017-12-20T08:55:27.583Z,360.00
2017-12-20T08:56:27.501Z,365.63
2017-12-20T08:57:27.425Z,365.63
2017-12-20T08:58:27.422Z,376.88
2017-12-20T08:59:27.369Z,388.13
2017-12-20T09:00:27.315Z,388.13
2017-12-20T09:01:27.272Z,388.13
2017-12-20T09:02:27.227Z,393.75
2017-12-20T09:03:27.198Z,393.75
2017-12-20T09:04:27.170Z,393.75
2017-12-20T09:05:27.120Z,382.50
2017-12-20T09:06:27.048Z,376.88
2017-12-20T09:07:27.073Z,371.25
2017-12-20T09:08:26.995Z,365.63
2017-12-20T09:09:26.927Z,371.25
2017-12-20T09:10:26.890Z,376.88
2017-12-20T09:11:26.832Z,382.50
2017-12-20T09:12:26.813Z,393.75
2017-12-20T09:13:26.794Z,405.00
2017-12-20T09:14:26.708Z,405.00
2017-12-20T09:15:26.660Z,416.25
2017-12-20T09:16:26.639Z,421.88
2017-12-20T09:17:26.597Z,427.50
2017-12-20T09:18:26.534Z,427.50
2017-12-20T09:19:26.485Z,433.13
2017-12-20T09:20:26.433Z,427.50
2017-12-20T09:21:26.394Z,421.88
2017-12-20T09:22:26.340Z,416.25
2017-12-20T09:23:26.311Z,421.88
2017-12-20T09:24:26.279Z,416.25
2017-12-20T09:25:26.208Z,421.88
2017-12-20T09:26:26.190Z,421.88
2017-12-20T09:27:26.122Z,427.50
2017-12-20T09:28:26.108Z,433.13
2017-12-20T09:29:26.070Z,438.75
2017-12-20T09:30:26.003Z,438.75
2017-12-20T09:31:25.967Z,438.75
2017-12-20T09:32:25.923Z,433.13
2017-12-20T09:33:25.860Z,433.13
2017-12-20T09:34:25.829Z,438.75
2017-12-20T09:35:25.796Z,444.38
2017-12-20T09:36:25.744Z,450.00
2017-12-20T09:37:25.697Z,450.00
2017-12-20T09:38:25.656Z,455.63
2017-12-20T09:39:25.620Z,461.25
2017-12-20T09:40:25.566Z,461.25
2017-12-20T09:41:25.520Z,466.88
2017-12-20T09:42:25.467Z,472.50
2017-12-20T09:43:25.436Z,472.50
2017-12-20T09:44:25.380Z,478.13
2017-12-20T09:45:25.335Z,489.38
2017-12-20T09:46:25.294Z,500.63
2017-12-20T09:47:25.265Z,511.88
2017-12-20T09:48:25.199Z,517.50
2017-12-20T09:49:25.161Z,517.50
2017-12-20T09:50:25.148Z,528.75
2017-12-20T09:51:25.067Z,523.13
2017-12-20T09:52:25.042Z,517.50
2017-12-20T09:53:24.979Z,523.13
2017-12-20T09:54:24.944Z,523.13
2017-12-20T09:55:24.901Z,528.75
2017-12-20T09:56:24.862Z,528.75
2017-12-20T09:57:24.815Z,534.38
2017-12-20T09:58:24.788Z,540.00
2017-12-20T09:59:24.739Z,551.25
2017-12-20T10:00:24.702Z,562.50
2017-12-20T10:01:24.627Z,573.75
2017-12-20T10:02:24.600Z,590.63
2017-12-20T10:03:24.545Z,607.50
2017-12-20T10:04:24.510Z,613.13
2017-12-20T10:05:24.482Z,624.38
2017-12-20T10:06:24.418Z,624.38
2017-12-20T10:07:24.399Z,630.00
2017-12-20T10:08:24.333Z,630.00
2017-12-20T10:09:24.310Z,646.88
2017-12-20T10:10:24.263Z,663.75
2017-12-20T10:11:24.216Z,686.25
2017-12-20T10:12:24.158Z,703.13
2017-12-20T10:13:24.098Z,714.38
2017-12-20T10:14:24.064Z,720.00
2017-12-20T10:15:24.034Z,714.38
2017-12-20T10:16:23.979Z,714.38
2017-12-20T10:17:23.945Z,725.63
2017-12-20T10:18:23.892Z,731.25
2017-12-20T10:19:23.832Z,742.50
2017-12-20T10:20:23.802Z,736.88
2017-12-20T10:21:23.795Z,720.00
2017-12-20T10:22:23.731Z,720.00
2017-12-20T10:23:23.682Z,720.00
2017-12-20T10:24:23.646Z,725.63
2017-12-20T10:25:23.591Z,714.38
2017-12-20T10:26:23.551Z,703.13
2017-12-20T10:27:23.539Z,686.25
2017-12-20T10:28:23.465Z,691.88
2017-12-20T10:29:23.425Z,708.75
2017-12-20T10:30:23.374Z,720.00
2017-12-20T10:31:23.334Z,731.25
2017-12-20T10:32:23.299Z,742.50
2017-12-20T10:33:23.269Z,753.75
2017-12-20T10:34:23.213Z,759.38
2017-12-20T10:35:23.165Z,759.38
2017-12-20T10:36:23.129Z,759.38
2017-12-20T10:37:23.075Z,748.13
2017-12-20T10:38:23.014Z,753.75
2017-12-20T10:39:22.988Z,759.38
2017-12-20T10:40:22.965Z,759.38
2017-12-20T10:41:22.908Z,770.63
2017-12-20T10:42:22.859Z,776.25
2017-12-20T10:43:22.819Z,787.50
2017-12-20T10:44:22.767Z,793.13
2017-12-20T10:45:22.741Z,793.13
2017-12-20T10:46:22.692Z,798.75
2017-12-20T10:47:22.632Z,810.00
2017-12-20T10:48:22.608Z,815.63
2017-12-20T10:49:22.565Z,832.50
2017-12-20T10:50:22.519Z,843.75
2017-12-20T10:51:22.484Z,843.75
2017-12-20T10:52:22.459Z,832.50
2017-12-20T10:53:22.378Z,815.63
2017-12-20T10:54:22.336Z,798.75
2017-12-20T10:55:22.303Z,781.88
2017-12-20T10:56:22.258Z,787.50
2017-12-20T10:57:22.223Z,804.38
2017-12-20T10:58:22.184Z,815.63
2017-12-20T10:59:22.160Z,815.63
2017-12-20T11:00:22.103Z,798.75
2017-12-20T11:01:22.049Z,770.63
2017-12-20T11:02:21.993Z,753.75
2017-12-20T11:03:21.957Z,759.38
2017-12-20T11:04:21.913Z,759.38
2017-12-20T11:05:21.863Z,748.13
2017-12-20T11:06:21.825Z,736.88
2017-12-20T11:07:21.796Z,731.25
2017-12-20T11:08:21.735Z,736.88
2017-12-20T11:09:21.689Z,736.88
2017-12-20T11:10:21.662Z,725.63
2017-12-20T11:11:21.669Z,703.13
2017-12-20T11:12:21.567Z,691.88
2017-12-20T11:13:21.526Z,686.25
2017-12-20T11:14:21.482Z,691.88
2017-12-20T11:15:21.447Z,691.88
2017-12-20T11:16:21.415Z,686.25
2017-12-20T11:17:21.354Z,686.25
2017-12-20T11:18:21.301Z,686.25
2017-12-20T11:19:21.284Z,686.25
2017-12-20T11:20:21.279Z,669.38
2017-12-20T11:21:21.200Z,663.75
2017-12-20T11:22:21.156Z,652.50
2017-12-20T11:23:21.097Z,646.88
2017-12-20T11:24:21.069Z,635.63
2017-12-20T11:25:21.015Z,635.63
2017-12-20T11:26:21.003Z,652.50
2017-12-20T11:27:20.929Z,669.38
2017-12-20T11:28:20.880Z,697.50
2017-12-20T11:29:20.848Z,731.25
2017-12-20T11:30:20.805Z,765.00
2017-12-20T11:31:20.749Z,770.63
2017-12-20T11:32:20.710Z,781.88
2017-12-20T11:33:20.692Z,770.63
2017-12-20T11:34:20.625Z,765.00
2017-12-20T11:35:20.576Z,770.63
2017-12-20T11:36:20.560Z,770.63
2017-12-20T11:37:20.495Z,770.63
2017-12-20T11:38:20.450Z,776.25
2017-12-20T11:39:20.442Z,770.63
2017-12-20T11:40:20.375Z,770.63
2017-12-20T11:41:20.333Z,765.00
2017-12-20T11:42:20.274Z,765.00
2017-12-20T11:43:20.245Z,770.63
2017-12-20T11:44:20.199Z,748.13
2017-12-20T11:45:20.158Z,731.25
2017-12-20T11:46:20.104Z,720.00
2017-12-20T11:47:20.063Z,703.13
2017-12-20T11:48:20.042Z,680.63
2017-12-20T11:49:19.988Z,669.38
2017-12-20T11:50:19.947Z,646.88
2017-12-20T11:51:19.892Z,635.63
2017-12-20T11:52:19.858Z,646.88
2017-12-20T11:53:19.824Z,663.75
2017-12-20T11:54:19.777Z,675.00
2017-12-20T11:55:19.723Z,675.00
2017-12-20T11:56:19.697Z,675.00
2017-12-20T11:57:19.634Z,669.38
2017-12-20T11:58:19.600Z,675.00
2017-12-20T11:59:19.556Z,680.63
2017-12-20T12:00:19.536Z,680.63
2017-12-20T12:01:19.463Z,680.63
2017-12-20T12:02:19.425Z,669.38
2017-12-20T12:03:19.391Z,669.38
2017-12-20T12:04:19.361Z,663.75
2017-12-20T12:05:19.321Z,663.75
2017-12-20T12:06:19.255Z,663.75
2017-12-20T12:07:19.226Z,669.38
2017-12-20T12:08:19.176Z,686.25
2017-12-20T12:09:19.134Z,669.38
2017-12-20T12:10:19.097Z,658.13
2017-12-20T12:11:19.047Z,646.88
2017-12-20T12:12:19.007Z,646.88
2017-12-20T12:13:18.963Z,663.75
2017-12-20T12:14:18.923Z,663.75
2017-12-20T12:15:18.901Z,680.63
2017-12-20T12:16:18.831Z,691.88
2017-12-20T12:17:18.799Z,708.75
2017-12-20T12:18:18.752Z,736.88
2017-12-20T12:19:18.712Z,759.38
2017-12-20T12:20:18.664Z,765.00
2017-12-20T12:21:18.606Z,776.25
2017-12-20T12:22:18.580Z,776.25
2017-12-20T12:23:18.559Z,776.25
2017-12-20T12:24:18.489Z,776.25
2017-12-20T12:25:18.448Z,776.25
2017-12-20T12:26:18.439Z,776.25
2017-12-20T12:27:18.377Z,770.63
2017-12-20T12:28:18.335Z,765.00
2017-12-20T12:29:18.285Z,753.75
2017-12-20T12:30:18.250Z,742.50
2017-12-20T12:31:18.189Z,748.13
2017-12-20T12:32:19.987Z,736.88
2017-12-20T12:33:18.115Z,742.50
2017-12-20T12:34:18.076Z,759.38
2017-12-20T12:35:18.011Z,770.63
2017-12-20T12:36:17.971Z,781.88
2017-12-20T12:37:17.938Z,781.88
2017-12-20T12:38:17.912Z,781.88
2017-12-20T12:39:17.858Z,776.25
2017-12-20T12:40:17.804Z,753.75
2017-12-20T12:41:17.766Z,759.38
2017-12-20T12:42:17.711Z,765.00
2017-12-20T12:43:17.683Z,753.75
2017-12-20T12:44:17.652Z,742.50
2017-12-20T12:45:17.601Z,725.63
2017-12-20T12:46:17.551Z,708.75
2017-12-20T12:47:17.518Z,686.25
2017-12-20T12:48:17.489Z,669.38
2017-12-20T12:49:17.428Z,646.88
2017-12-20T12:50:17.377Z,646.88
2017-12-20T12:51:17.350Z,675.00
2017-12-20T12:52:17.297Z,686.25
2017-12-20T12:53:17.246Z,686.25
2017-12-20T12:54:17.220Z,691.88
2017-12-20T12:55:17.176Z,703.13